Time;durP1;ratioP1;P1;durP2;ratioP2;P2;SDS_P1;SDS_P2;PMS_P1;PMS_P2;Temp;Humidity;BMP_temperature;BMP_pressure;BME280_temperature;BME280_humidity;BME280_pressure;Samples;Min_cycle;Max_cycle;Signal;HPM_P1;HPM_P2
2022/04/16 00:04:45;;;;;;;4.93;4.15;;;;;;;;;;12292953;29;20050;-79
2022/04/16 00:10:47;;;;;;;5.18;4.70;;;;;;;;;;12292127;29;20496;-79
2022/04/16 00:16:49;;;;;;;5.20;4.70;;;;;;;;;;12292041;29;20039;-79
2022/04/16 00:22:52;;;;;;;5.82;5.32;;;;;;;;;;12292228;29;20047;-79
2022/04/16 00:28:54;;;;;;;;;;;;;;;;;;12308957;29;20054;-79
2022/04/16 00:34:55;;;;;;;4.97;4.53;;;;;;;;;;12308226;29;19914;-79
2022/04/16 00:40:57;;;;;;;5.30;4.80;;;;;;;;;;12291790;29;20051;-79
2022/04/16 00:46:59;;;;;;;6.33;4.70;;;;;;;;;;12290887;29;20280;-79
2022/04/16 00:53:01;;;;;;;6.40;5.82;;;;;;;;;;12290590;29;20392;-79
2022/04/16 00:59:04;;;;;;;5.07;4.67;;;;;;;;;;12307671;29;20039;-79
2022/04/16 01:05:07;;;;;;;7.00;5.57;;;;;;;;;;12290411;29;20054;-78
2022/04/16 01:11:09;;;;;;;5.20;4.72;;;;;;;;;;12289308;28;20039;-79
2022/04/16 01:17:11;;;;;;;5.40;5.00;;;;;;;;;;12289115;29;20489;-79
2022/04/16 01:23:13;;;;;;;5.13;4.57;;;;;;;;;;12289259;29;20480;-79
2022/04/16 01:29:15;;;;;;;4.87;4.47;;;;;;;;;;12305892;29;20044;-79
2022/04/16 01:35:17;;;;;;;5.38;4.88;;;;;;;;;;12304983;28;20523;-79
2022/04/16 01:41:19;;;;;;;5.25;4.75;;;;;;;;;;12288462;29;20051;-79
2022/04/16 01:47:20;;;;;;;5.40;4.90;;;;;;;;;;12287727;29;20050;-79
2022/04/16 01:53:22;;;;;;;5.45;5.03;;;;;;;;;;12297349;28;20019;-79
2022/04/16 01:59:25;;;;;;;5.78;5.28;;;;;;;;;;12311437;28;20047;-79
2022/04/16 02:05:26;;;;;;;6.03;5.35;;;;;;;;;;12304995;29;20047;-79
2022/04/16 02:11:28;;;;;;;6.18;5.43;;;;;;;;;;12287380;29;20392;-79
2022/04/16 02:17:32;;;;;;;5.93;5.13;;;;;;;;;;12303777;29;20035;-79
2022/04/16 02:23:34;;;;;;;6.05;5.30;;;;;;;;;;12285488;28;20062;-79
2022/04/16 02:29:36;;;;;;;5.93;5.43;;;;;;;;;;12285836;29;20039;-79
2022/04/16 02:35:38;;;;;;;6.68;6.07;;;;;;;;;;12287121;29;20046;-79
2022/04/16 02:41:40;;;;;;;;;;;;;;;;;;12286372;29;20063;-79
2022/04/16 02:47:42;;;;;;;6.25;5.65;;;;;;;;;;12285768;29;19934;-79
2022/04/16 02:53:43;;;;;;;7.72;7.10;;;;;;;;;;12302767;29;20038;-79
2022/04/16 02:59:46;;;;;;;6.07;5.57;;;;;;;;;;12302026;29;20047;-79
2022/04/16 03:05:48;;;;;;;6.88;6.35;;;;;;;;;;12302578;28;20058;-79
2022/04/16 03:11:50;;;;;;;6.97;6.37;;;;;;;;;;12302261;29;20035;-79
2022/04/16 03:17:52;;;;;;;6.05;5.55;;;;;;;;;;12301543;29;20042;-79
2022/04/16 03:23:54;;;;;;;7.73;7.03;;;;;;;;;;12284175;29;20065;-79
2022/04/16 03:29:56;;;;;;;6.82;6.22;;;;;;;;;;12284091;29;20378;-79
2022/04/16 03:35:57;;;;;;;6.00;5.40;;;;;;;;;;12308104;28;20058;-78
2022/04/16 03:41:59;;;;;;;6.78;6.18;;;;;;;;;;12321314;28;20159;-78
2022/04/16 03:48:01;;;;;;;6.47;5.88;;;;;;;;;;12299549;29;20050;-78
2022/04/16 04:00:24;;;;;;;5.85;5.35;;;;;;;;;;12311938;29;20038;-79
2022/04/16 04:06:45;;;;;;;6.05;5.55;;;;;;;;;;12329138;28;20059;-79
2022/04/16 04:12:47;;;;;;;8.38;7.57;;;;;;;;;;12292028;29;20035;-79
2022/04/16 04:18:49;;;;;;;7.65;6.95;;;;;;;;;;12309105;29;20031;-79
2022/04/16 04:24:50;;;;;;;11.07;10.18;;;;;;;;;;12325279;28;20039;-79
2022/04/16 04:30:52;;;;;;;8.18;7.35;;;;;;;;;;12310108;29;20046;-79
2022/04/16 04:36:59;;;;;;;13.07;7.95;;;;;;;;;;12293093;29;20420;-79
2022/04/16 04:43:01;;;;;;;7.47;6.85;;;;;;;;;;12291553;29;20039;-79
2022/04/16 04:49:03;;;;;;;8.60;7.80;;;;;;;;;;12290142;29;20047;-79
2022/04/16 04:55:07;;;;;;;8.02;7.32;;;;;;;;;;12307533;29;20035;-79
2022/04/16 05:01:09;;;;;;;6.57;5.93;;;;;;;;;;12307530;29;20043;-79
2022/04/16 05:07:11;;;;;;;7.75;7.05;;;;;;;;;;12307003;29;20039;-79
2022/04/16 05:13:13;;;;;;;6.30;5.80;;;;;;;;;;12322944;28;20047;-79
2022/04/16 05:19:14;;;;;;;7.07;6.47;;;;;;;;;;12289110;29;20023;-79
2022/04/16 05:25:16;;;;;;;6.23;5.70;;;;;;;;;;12289419;29;20416;-79
2022/04/16 05:31:20;;;;;;;8.02;7.22;;;;;;;;;;12288463;29;20345;-79
2022/04/16 05:37:22;;;;;;;6.38;5.88;;;;;;;;;;12306546;29;20058;-79
2022/04/16 05:43:23;;;;;;;7.03;6.43;;;;;;;;;;12306096;29;20051;-79
2022/04/16 05:49:25;;;;;;;5.13;4.72;;;;;;;;;;12287608;29;20428;-79
2022/04/16 05:55:27;;;;;;;6.30;5.70;;;;;;;;;;12287391;28;20523;-79
2022/04/16 06:01:29;;;;;;;6.53;5.63;;;;;;;;;;12287963;29;20043;-79
2022/04/16 06:07:30;;;;;;;6.70;6.00;;;;;;;;;;12304986;28;20043;-79
2022/04/16 06:13:32;;;;;;;7.32;6.43;;;;;;;;;;12286767;29;20031;-79
2022/04/16 06:19:34;;;;;;;7.83;6.57;;;;;;;;;;12303507;29;20046;-79
2022/04/16 06:25:36;;;;;;;7.60;6.85;;;;;;;;;;12288031;29;20039;-79
2022/04/16 06:31:38;;;;;;;5.97;5.40;;;;;;;;;;12287283;29;20038;-79
2022/04/16 06:37:43;;;;;;;7.10;6.40;;;;;;;;;;12296062;28;20035;-79
2022/04/16 06:43:45;;;;;;;6.60;5.97;;;;;;;;;;12291583;29;20309;-79
2022/04/16 06:49:49;;;;;;;5.65;5.13;;;;;;;;;;12285539;29;20490;-79
2022/04/16 06:55:51;;;;;;;3.58;3.17;;;;;;;;;;12285007;29;20030;-79
2022/04/16 07:01:53;;;;;;;5.00;4.53;;;;;;;;;;12284492;29;20050;-79
2022/04/16 07:07:54;;;;;;;4.67;3.63;;;;;;;;;;12284850;28;20054;-79
2022/04/16 07:13:56;;;;;;;4.17;3.77;;;;;;;;;;12301614;29;20039;-79
2022/04/16 07:19:58;;;;;;;3.67;3.00;;;;;;;;;;12300520;29;20420;-79
2022/04/16 07:26:00;;;;;;;3.93;3.63;;;;;;;;;;12287574;29;20058;-79
2022/04/16 07:32:02;;;;;;;4.23;3.83;;;;;;;;;;12296186;28;20035;-79
2022/04/16 07:38:03;;;;;;;4.47;4.07;;;;;;;;;;12302061;29;20054;-79
2022/04/16 07:44:05;;;;;;;3.27;3.03;;;;;;;;;;12300919;29;20042;-79
2022/04/16 07:50:07;;;;;;;3.47;3.17;;;;;;;;;;12300274;29;20050;-79
2022/04/16 07:56:09;;;;;;;5.28;4.78;;;;;;;;;;12282987;29;20400;-79
2022/04/16 08:02:11;;;;;;;4.53;4.13;;;;;;;;;;12315185;29;20039;-79
2022/04/16 08:08:12;;;;;;;3.77;2.97;;;;;;;;;;12283056;29;20244;-80
2022/04/16 08:14:15;;;;;;;3.58;2.70;;;;;;;;;;12283520;29;20035;-79
2022/04/16 08:20:16;;;;;;;3.13;2.83;;;;;;;;;;12286408;28;20039;-79
2022/04/16 08:26:18;;;;;;;2.63;2.43;;;;;;;;;;12291475;29;20066;-79
2022/04/16 08:32:20;;;;;;;3.23;2.67;;;;;;;;;;12308236;28;20043;-79
2022/04/16 08:38:22;;;;;;;4.07;3.07;;;;;;;;;;12325162;28;20043;-79
2022/04/16 08:44:28;;;;;;;2.45;2.25;;;;;;;;;;12290642;29;20027;-79
2022/04/16 08:50:30;;;;;;;3.10;2.70;;;;;;;;;;12290700;29;20043;-79
2022/04/16 08:56:32;;;;;;;2.95;2.28;;;;;;;;;;12307417;29;20034;-78
2022/04/16 09:02:34;;;;;;;3.58;3.05;;;;;;;;;;12307289;28;20043;-79
2022/04/16 09:08:36;;;;;;;3.53;2.70;;;;;;;;;;12290117;29;20051;-78
2022/04/16 09:14:43;;;;;;;2.80;1.95;;;;;;;;;;12289595;29;20400;-78
2022/04/16 09:20:44;;;;;;;3.58;2.60;;;;;;;;;;12288919;29;20042;-79
2022/04/16 09:26:49;;;;;;;4.60;2.40;;;;;;;;;;12289177;29;20081;-79
2022/04/16 09:32:52;;;;;;;2.80;2.08;;;;;;;;;;12288374;28;20042;-79
2022/04/16 09:39:07;;;;;;;2.40;2.20;;;;;;;;;;12288621;29;20055;-78
2022/04/16 09:45:15;;;;;;;1.98;1.88;;;;;;;;;;12305162;29;20035;-79
2022/04/16 09:51:19;;;;;;;1.55;1.45;;;;;;;;;;12287796;29;20408;-79
2022/04/16 09:57:24;;;;;;;2.85;1.92;;;;;;;;;;12304562;29;20042;-79
2022/04/16 10:03:27;;;;;;;1.63;1.52;;;;;;;;;;12292395;29;20046;-77
2022/04/16 10:09:30;;;;;;;5.05;1.77;;;;;;;;;;12315181;29;20503;-78
2022/04/16 10:15:53;;;;;;;2.85;1.77;;;;;;;;;;12287808;29;20392;-78
2022/04/16 10:21:55;;;;;;;1.58;1.40;;;;;;;;;;12286880;29;20039;-78
2022/04/16 10:28:00;;;;;;;1.60;1.50;;;;;;;;;;12303145;29;20508;-78
2022/04/16 10:34:02;;;;;;;2.25;2.05;;;;;;;;;;12285748;29;20051;-79
2022/04/16 10:40:13;;;;;;;1.60;1.50;;;;;;;;;;12285282;29;20051;-79
2022/04/16 10:46:15;;;;;;;1.60;1.40;;;;;;;;;;12301663;28;20644;-79
2022/04/16 10:52:21;;;;;;;1.38;1.27;;;;;;;;;;12284737;29;20042;-79
2022/04/16 10:58:30;;;;;;;1.55;1.45;;;;;;;;;;12284184;29;20043;-79
2022/04/16 11:04:31;;;;;;;1.60;1.20;;;;;;;;;;12316020;28;20043;-79
2022/04/16 11:10:33;;;;;;;1.13;1.10;;;;;;;;;;12284147;29;20416;-78
2022/04/16 11:16:43;;;;;;;2.63;1.10;;;;;;;;;;12300825;29;20484;-79
2022/04/16 11:22:49;;;;;;;1.02;0.93;;;;;;;;;;12283736;29;20034;-79
2022/04/16 11:35:12;;;;;;;1.45;1.20;;;;;;;;;;12301226;29;20046;-79
2022/04/16 11:41:14;;;;;;;1.70;1.10;;;;;;;;;;12300316;29;20047;-79
2022/04/16 11:47:20;;;;;;;0.60;0.60;;;;;;;;;;12283575;29;20051;-79
2022/04/16 11:53:21;;;;;;;0.70;0.70;;;;;;;;;;12283924;28;20046;-79
2022/04/16 11:59:24;;;;;;;0.98;0.82;;;;;;;;;;12309819;29;20210;-79
2022/04/16 12:05:30;;;;;;;0.88;0.77;;;;;;;;;;12310223;29;20042;-79
2022/04/16 12:11:32;;;;;;;1.20;1.10;;;;;;;;;;12291921;29;20047;-80
2022/04/16 12:17:34;;;;;;;1.00;0.90;;;;;;;;;;12325570;28;20050;-80
2022/04/16 12:23:38;;;;;;;;;;;;;;;;;;12291868;29;20038;-80
2022/04/16 12:29:47;;;;;;;0.98;0.88;;;;;;;;;;12323266;28;20406;-80
2022/04/16 12:35:50;;;;;;;0.80;0.80;;;;;;;;;;12292125;29;20035;-80
2022/04/16 12:41:52;;;;;;;1.67;0.85;;;;;;;;;;12310568;28;20420;-79
2022/04/16 12:47:54;;;;;;;1.27;1.00;;;;;;;;;;12307346;29;20058;-79
2022/04/16 12:53:57;;;;;;;1.98;0.93;;;;;;;;;;12307088;29;20031;-79
2022/04/16 12:59:59;;;;;;;1.13;0.80;;;;;;;;;;12306856;29;20081;-79
2022/04/16 13:06:02;;;;;;;0.70;0.68;;;;;;;;;;12288925;28;20484;-79
2022/04/16 13:12:03;;;;;;;;;;;;;;;;;;12290439;29;20047;-78
2022/04/16 13:18:07;;;;;;;0.60;0.60;;;;;;;;;;12289180;29;19918;-79
2022/04/16 13:24:11;;;;;;;1.33;0.88;;;;;;;;;;12289261;29;20031;-78
2022/04/16 13:30:13;;;;;;;0.80;0.80;;;;;;;;;;12289176;29;20054;-78
2022/04/16 13:36:15;;;;;;;1.50;1.03;;;;;;;;;;12288829;29;20046;-78
2022/04/16 13:42:16;;;;;;;1.17;1.07;;;;;;;;;;12320637;29;20055;-77
2022/04/16 13:48:19;;;;;;;1.23;0.88;;;;;;;;;;12305205;29;20804;-78
2022/04/16 13:54:21;;;;;;;1.20;0.97;;;;;;;;;;12287959;29;20046;-78
2022/04/16 14:00:22;;;;;;;2.07;1.17;;;;;;;;;;12287530;29;20047;-78
2022/04/16 14:06:24;;;;;;;1.37;1.27;;;;;;;;;;12287221;29;20043;-78
2022/04/16 14:12:27;;;;;;;;;;;;;;;;;;12302186;29;20035;-78
2022/04/16 14:18:29;;;;;;;3.10;2.53;;;;;;;;;;12287605;28;19917;-78
2022/04/16 14:24:31;;;;;;;2.57;1.83;;;;;;;;;;12287040;29;20031;-78
2022/04/16 14:30:34;;;;;;;2.17;1.48;;;;;;;;;;12304487;29;20047;-78
2022/04/16 14:36:35;;;;;;;2.10;1.30;;;;;;;;;;12286770;29;20038;-78
2022/04/16 14:42:37;;;;;;;1.20;1.10;;;;;;;;;;12319317;28;20543;-78
2022/04/16 14:48:39;;;;;;;2.00;1.60;;;;;;;;;;12301670;29;20035;-78
2022/04/16 14:54:43;;;;;;;1.13;1.00;;;;;;;;;;12285556;29;20038;-78
2022/04/16 15:00:45;;;;;;;2.10;1.35;;;;;;;;;;12285206;29;20042;-78
2022/04/16 15:06:47;;;;;;;1.38;1.27;;;;;;;;;;12285501;29;20051;-78
2022/04/16 15:12:49;;;;;;;1.57;1.37;;;;;;;;;;12300790;28;20039;-78
2022/04/16 15:18:51;;;;;;;1.27;1.17;;;;;;;;;;12284808;29;20046;-78
2022/04/16 15:25:00;;;;;;;1.70;1.60;;;;;;;;;;12301663;29;20047;-79
2022/04/16 15:31:14;;;;;;;1.53;1.43;;;;;;;;;;12283994;29;20054;-79
2022/04/16 15:37:18;;;;;;;1.77;1.67;;;;;;;;;;12301067;29;20515;-79
2022/04/16 15:43:30;;;;;;;2.60;2.40;;;;;;;;;;12284740;29;20376;-78
2022/04/16 15:49:33;;;;;;;2.05;1.70;;;;;;;;;;12300968;29;20043;-79
2022/04/16 15:55:37;;;;;;;2.88;2.65;;;;;;;;;;12316472;29;20054;-78
2022/04/16 16:01:39;;;;;;;1.58;1.48;;;;;;;;;;12300653;29;20066;-78
2022/04/16 16:07:45;;;;;;;2.00;1.90;;;;;;;;;;12284686;29;20054;-79
2022/04/16 16:13:51;;;;;;;2.08;1.95;;;;;;;;;;12302011;29;20036;-78
2022/04/16 16:19:52;;;;;;;2.90;2.60;;;;;;;;;;12284767;29;20039;-78
2022/04/16 16:25:57;;;;;;;4.18;3.20;;;;;;;;;;12300590;29;20404;-78
2022/04/16 16:31:59;;;;;;;3.03;2.83;;;;;;;;;;12299703;29;20051;-79
2022/04/16 16:38:01;;;;;;;3.00;2.80;;;;;;;;;;12282226;29;20031;-80
2022/04/16 16:44:03;;;;;;;2.50;2.30;;;;;;;;;;12292586;29;20049;-79
2022/04/16 16:50:05;;;;;;;2.50;2.30;;;;;;;;;;12313999;29;20046;-78
2022/04/16 16:56:09;;;;;;;2.65;2.45;;;;;;;;;;12293459;29;20046;-78
2022/04/16 17:08:45;;;;;;;3.50;3.08;;;;;;;;;;12308223;29;20225;-79
2022/04/16 17:21:08;;;;;;;2.60;2.40;;;;;;;;;;12288953;29;20066;-79
2022/04/16 17:27:10;;;;;;;3.83;3.53;;;;;;;;;;12306289;29;20392;-79
2022/04/16 17:33:12;;;;;;;3.27;2.87;;;;;;;;;;12306077;29;20035;-78
2022/04/16 17:39:14;;;;;;;3.28;2.97;;;;;;;;;;12288395;29;20047;-78
2022/04/16 17:45:16;;;;;;;2.30;2.10;;;;;;;;;;12305213;29;20047;-78
2022/04/16 17:51:18;;;;;;;;;;;;;;;;;;12288667;28;20047;-78
2022/04/16 17:57:20;;;;;;;3.60;3.30;;;;;;;;;;12295693;29;19898;-78
2022/04/16 18:03:22;;;;;;;3.73;3.23;;;;;;;;;;12297311;29;20062;-78
2022/04/16 18:09:24;;;;;;;3.97;3.67;;;;;;;;;;12286899;29;20075;-78
2022/04/16 18:15:26;;;;;;;14.30;7.77;;;;;;;;;;12287027;29;20031;-78
2022/04/16 18:21:47;;;;;;;5.78;4.60;;;;;;;;;;12286224;29;20031;-78
2022/04/16 18:27:51;;;;;;;3.38;2.90;;;;;;;;;;12286404;29;20389;-78
2022/04/16 18:33:53;;;;;;;2.27;1.90;;;;;;;;;;12299639;28;20019;-78
2022/04/16 18:39:55;;;;;;;5.40;2.93;;;;;;;;;;12307394;28;20059;-78
2022/04/16 18:45:58;;;;;;;2.25;1.88;;;;;;;;;;12302344;29;20034;-78
2022/04/16 18:52:00;;;;;;;;;;;;;;;;;;12302888;29;20047;-78
2022/04/16 18:58:02;;;;;;;1.73;1.55;;;;;;;;;;12302022;29;20300;-78
2022/04/16 19:10:24;;;;;;;2.33;1.05;;;;;;;;;;12302038;29;20055;-78
2022/04/16 19:16:27;;;;;;;1.73;0.93;;;;;;;;;;12303349;28;20054;-78
2022/04/16 19:22:29;;;;;;;6.90;0.98;;;;;;;;;;12301007;29;20389;-78
2022/04/16 19:28:31;;;;;;;0.67;0.67;;;;;;;;;;12284867;29;20039;-79
2022/04/16 19:34:34;;;;;;;1.50;0.90;;;;;;;;;;12319211;28;20031;-79
2022/04/16 19:40:36;;;;;;;0.70;0.70;;;;;;;;;;12283948;29;20511;-78
2022/04/16 19:46:43;;;;;;;1.83;0.70;;;;;;;;;;12300314;29;20035;-78
2022/04/16 19:52:45;;;;;;;0.82;0.55;;;;;;;;;;12300640;29;20485;-78
2022/04/16 19:58:48;;;;;;;2.77;0.80;;;;;;;;;;12301846;29;20039;-79
2022/04/16 20:04:50;;;;;;;0.43;0.30;;;;;;;;;;12283535;29;20302;-78
2022/04/16 20:10:55;;;;;;;1.08;0.50;;;;;;;;;;12317840;28;20031;-78
2022/04/16 20:16:57;;;;;;;0.47;0.47;;;;;;;;;;12287814;28;20126;-78
2022/04/16 20:23:05;;;;;;;1.77;0.53;;;;;;;;;;12308678;29;20043;-78
2022/04/16 20:29:10;;;;;;;0.28;0.28;;;;;;;;;;12292351;29;20043;-78
2022/04/16 20:35:12;;;;;;;0.77;0.38;;;;;;;;;;12291487;29;20054;-78
2022/04/16 20:47:34;;;;;;;0.50;0.30;;;;;;;;;;12291848;29;20054;-77
2022/04/16 20:53:36;;;;;;;1.00;0.40;;;;;;;;;;12291125;29;20038;-78
2022/04/16 20:59:38;;;;;;;0.30;0.30;;;;;;;;;;12308147;29;20043;-79
2022/04/16 21:05:41;;;;;;;0.93;0.30;;;;;;;;;;12290474;29;20028;-79
2022/04/16 21:11:42;;;;;;;0.47;0.30;;;;;;;;;;12306925;28;20047;-79
2022/04/16 21:17:45;;;;;;;0.37;0.33;;;;;;;;;;12307084;29;20382;-79
2022/04/16 21:23:47;;;;;;;1.10;0.60;;;;;;;;;;12306469;29;20034;-79
2022/04/16 21:29:53;;;;;;;1.10;0.80;;;;;;;;;;12288299;29;20410;-79
2022/04/16 21:35:55;;;;;;;2.33;0.90;;;;;;;;;;12290482;29;20043;-78
2022/04/16 21:41:57;;;;;;;0.60;0.60;;;;;;;;;;12306320;29;20574;-79
2022/04/16 21:47:59;;;;;;;0.67;0.43;;;;;;;;;;12305626;29;20460;-79
2022/04/16 21:54:01;;;;;;;0.40;0.35;;;;;;;;;;12288517;29;20028;-79
2022/04/16 22:00:04;;;;;;;1.13;0.50;;;;;;;;;;12288049;29;20396;-78
2022/04/16 22:06:07;;;;;;;1.67;0.80;;;;;;;;;;12288443;29;20066;-78
2022/04/16 22:12:09;;;;;;;0.60;0.50;;;;;;;;;;12301678;28;20058;-78
2022/04/16 22:18:10;;;;;;;0.45;0.40;;;;;;;;;;12307396;28;20377;-79
2022/04/16 22:24:12;;;;;;;1.80;0.50;;;;;;;;;;12287322;29;20046;-78
2022/04/16 22:30:15;;;;;;;0.63;0.37;;;;;;;;;;12286149;29;20497;-78
2022/04/16 22:36:17;;;;;;;0.95;0.63;;;;;;;;;;12285759;29;20036;-78
2022/04/16 22:42:19;;;;;;;2.93;0.73;;;;;;;;;;12286375;29;20070;-78
2022/04/16 22:48:23;;;;;;;0.50;0.50;;;;;;;;;;12304000;29;20404;-78
2022/04/16 22:54:24;;;;;;;0.57;0.32;;;;;;;;;;12285752;29;20050;-78
2022/04/16 23:00:28;;;;;;;3.17;0.73;;;;;;;;;;12285441;29;20046;-78
2022/04/16 23:06:29;;;;;;;1.83;0.57;;;;;;;;;;12285832;29;20046;-78
2022/04/16 23:12:31;;;;;;;0.80;0.70;;;;;;;;;;12319441;28;20047;-78
2022/04/16 23:18:33;;;;;;;2.65;0.88;;;;;;;;;;12302840;29;20062;-78
2022/04/16 23:24:35;;;;;;;0.90;0.87;;;;;;;;;;12285904;29;20035;-78
2022/04/16 23:30:37;;;;;;;2.30;0.97;;;;;;;;;;12285746;29;20046;-78
2022/04/16 23:36:39;;;;;;;1.23;0.80;;;;;;;;;;12284921;29;20044;-78
2022/04/16 23:42:41;;;;;;;0.80;0.80;;;;;;;;;;12285349;29;20286;-78
2022/04/16 23:48:43;;;;;;;0.90;0.70;;;;;;;;;;12284165;29;20035;-78
2022/04/16 23:54:45;;;;;;;0.75;0.75;;;;;;;;;;12310310;28;20035;-78
